Time;durP1;ratioP1;P1;durP2;ratioP2;P2;SDS_P1;SDS_P2;PMS_P1;PMS_P2;Temp;Humidity;BMP_temperature;BMP_pressure;BME280_temperature;BME280_humidity;BME280_pressure;Samples;Min_cycle;Max_cycle;Signal;HPM_P1;HPM_P2
2023/09/30 09:03:42;;;;;;;;;4.00;4.00;;;;;24.63;43.01;102283.56;5072025;28;45432;-59
2023/09/30 09:06:07;;;;;;;;;6.25;3.50;;;;;25.08;42.72;102276.22;5054938;28;45378;-60
2023/09/30 09:08:32;;;;;;;;;3.00;3.00;;;;;25.44;41.04;102281.38;5051020;28;45391;-59
2023/09/30 09:11:00;;;;;;;;;2.75;2.75;;;;;25.75;40.76;102282.44;5053938;28;45448;-60
2023/09/30 09:13:27;;;;;;;;;4.00;3.00;;;;;25.94;40.32;102284.47;5055015;28;46295;-60
2023/09/30 09:18:34;;;;;;;;;5.25;3.50;;;;;26.34;38.36;102265.38;4984412;28;46402;-62
2023/09/30 09:21:13;;;;;;;;;11.75;10.00;;;;;26.44;38.70;102258.06;4994430;28;46122;-61
2023/09/30 09:23:44;;;;;;;;;4.75;4.75;;;;;26.57;38.55;102253.19;4994019;28;46039;-60
2023/09/30 09:26:23;;;;;;;;;10.00;8.50;;;;;26.69;38.48;102257.63;4988947;28;45594;-60
2023/09/30 09:28:49;;;;;;;;;8.00;5.00;;;;;26.89;38.24;102254.91;4987838;28;45423;-60
2023/09/30 09:31:21;;;;;;;;;2.75;2.75;;;;;27.02;38.10;102233.56;4980269;28;45825;-60
2023/09/30 09:33:47;;;;;;;;;6.50;6.00;;;;;27.23;37.96;102252.72;4986562;28;46149;-61
2023/09/30 09:36:13;;;;;;;;;6.50;6.25;;;;;27.37;38.04;102244.94;4990939;28;45367;-61
2023/09/30 09:38:46;;;;;;;;;6.50;5.00;;;;;27.55;38.32;102263.53;4975896;28;46179;-60
2023/09/30 09:41:11;;;;;;;;;7.00;7.00;;;;;27.63;38.49;102269.19;4974880;28;45446;-60
2023/09/30 09:43:37;;;;;;;;;4.00;4.00;;;;;27.61;37.64;102269.34;4974637;28;45989;-59
2023/09/30 09:46:07;;;;;;;;;5.75;5.75;;;;;27.69;38.42;102277.75;4981447;28;45293;-60
2023/09/30 09:48:35;;;;;;;;;7.50;5.00;;;;;27.97;37.40;102273.25;4987318;28;45556;-61
2023/09/30 09:51:02;;;;;;;;;4.50;4.50;;;;;27.78;37.88;102273.25;4989435;28;45285;-60
2023/09/30 09:53:30;;;;;;;;;7.25;4.50;;;;;27.73;38.16;102272.84;4975412;28;46901;-59
2023/09/30 09:55:59;;;;;;;;;4.75;4.75;;;;;27.82;37.64;102271.94;4990816;28;45448;-60
2023/09/30 09:58:26;;;;;;;;;10.50;5.75;;;;;27.82;37.87;102271.94;4994060;28;45639;-61
2023/09/30 10:00:52;;;;;;;;;11.00;5.25;;;;;27.84;37.65;102261.66;4991879;28;45598;-60
2023/09/30 10:03:18;;;;;;;;;6.00;3.50;;;;;27.78;37.22;102265.88;4983538;28;47543;-61
2023/09/30 10:05:45;;;;;;;;;4.75;4.75;;;;;27.79;37.77;102258.47;4974324;28;45424;-60
2023/09/30 10:08:17;;;;;;;;;4.00;3.75;;;;;27.87;37.01;102244.81;4981731;28;45423;-61
2023/09/30 10:10:45;;;;;;;;;4.50;4.50;;;;;28.07;37.85;102235.50;4981066;28;45343;-61
2023/09/30 10:13:48;;;;;;;;;7.00;5.75;;;;;28.23;37.37;102237.69;4980925;28;45365;-61
2023/09/30 10:16:35;;;;;;;;;8.75;4.00;;;;;28.33;36.98;102224.72;4980320;28;45240;-60
2023/09/30 10:19:12;;;;;;;;;3.50;3.50;;;;;28.45;36.83;102233.69;4980842;28;45503;-60
2023/09/30 10:21:39;;;;;;;;;4.50;4.50;;;;;28.53;36.53;102239.31;4980960;28;45519;-60
2023/09/30 10:24:37;;;;;;;;;3.50;2.75;;;;;28.59;37.19;102245.09;4978952;28;47275;-63
2023/09/30 10:27:24;;;;;;;;;5.25;5.25;;;;;28.61;36.71;102243.06;4974073;28;45402;-59
2023/09/30 10:30:01;;;;;;;;;4.25;3.75;;;;;28.83;36.35;102241.84;4970047;28;45323;-60
2023/09/30 10:32:51;;;;;;;;;6.75;5.75;;;;;28.85;35.48;102234.25;4960696;28;45449;-60
2023/09/30 10:35:41;;;;;;;;;5.00;4.00;;;;;29.04;36.06;102221.38;4961218;28;46413;-61
2023/09/30 10:38:22;;;;;;;;;4.00;4.00;;;;;29.14;36.18;102213.91;4961255;28;45434;-61
2023/09/30 10:40:48;;;;;;;;;6.50;1.75;;;;;29.22;35.83;102203.81;4968197;28;45360;-61
2023/09/30 10:43:32;;;;;;;;;6.00;6.00;;;;;29.41;35.70;102218.53;4980371;28;45256;-61
2023/09/30 10:46:02;;;;;;;;;7.25;7.25;;;;;29.53;35.46;102218.13;4980177;28;46388;-61
2023/09/30 10:48:27;;;;;;;;;5.75;5.00;;;;;29.63;34.92;102215.28;4980171;28;45370;-62
2023/09/30 10:50:55;;;;;;;;;4.00;4.00;;;;;29.71;34.42;102212.59;4980556;28;45401;-60
2023/09/30 10:53:21;;;;;;;;;5.00;5.00;;;;;29.82;35.04;102220.66;4976603;28;45478;-62
2023/09/30 10:55:54;;;;;;;;;7.00;6.75;;;;;29.96;34.64;102213.69;4964018;28;45799;-61
2023/09/30 10:58:19;;;;;;;;;6.75;4.25;;;;;30.05;35.08;102208.06;4979019;28;45336;-63
2023/09/30 11:00:54;;;;;;;;;5.25;5.25;;;;;30.23;34.28;102209.91;4980456;28;45747;-65
2023/09/30 11:03:23;;;;;;;;;7.25;6.00;;;;;30.27;33.71;102201.13;4980689;28;45411;-63
2023/09/30 11:05:49;;;;;;;;;7.50;5.75;;;;;30.36;34.59;102207.59;4980078;28;46427;-64
2023/09/30 11:08:17;;;;;;;;;10.50;6.25;;;;;30.40;33.19;102196.00;4978493;28;45350;-63
2023/09/30 11:10:52;;;;;;;;;7.50;6.00;;;;;30.56;33.41;102199.91;4979740;28;45288;-64
2023/09/30 11:13:18;;;;;;;;;6.00;6.00;;;;;30.59;32.22;102185.75;4971553;28;46137;-62
2023/09/30 11:15:44;;;;;;;;;2.50;2.50;;;;;30.71;32.51;102193.59;4959636;28;45396;-64
2023/09/30 11:18:19;;;;;;;;;7.00;3.75;;;;;30.87;32.48;102186.41;4960416;28;45874;-61
2023/09/30 11:20:45;;;;;;;;;6.75;5.75;;;;;30.91;31.92;102188.66;4979555;28;45334;-63
2023/09/30 11:23:14;;;;;;;;;9.25;6.00;;;;;30.88;32.46;102185.38;4979749;28;45415;-63
2023/09/30 11:25:41;;;;;;;;;6.25;5.75;;;;;30.92;32.00;102183.97;4973159;28;46058;-63
2023/09/30 11:28:19;;;;;;;;;8.00;6.25;;;;;31.16;31.79;102193.25;4960255;28;45436;-64
2023/09/30 11:31:01;;;;;;;;;8.00;7.00;;;;;31.36;31.09;102201.25;4960342;28;45488;-65
2023/09/30 11:33:27;;;;;;;;;8.50;5.25;;;;;31.46;31.17;102188.13;4960389;28;45333;-63
2023/09/30 11:36:11;;;;;;;;;8.25;8.25;;;;;31.64;31.19;102186.09;4992337;28;47674;-64
2023/09/30 11:38:36;;;;;;;;;7.25;6.50;;;;;31.89;30.82;102186.94;4976382;28;45390;-60
2023/09/30 11:41:06;;;;;;;;;8.50;7.50;;;;;32.01;30.96;102181.88;4978615;28;54609;-63
2023/09/30 11:43:33;;;;;;;;;8.00;7.00;;;;;32.09;30.93;102181.84;4966152;28;45535;-60
2023/09/30 11:46:09;;;;;;;;;7.75;7.75;;;;;32.28;30.41;102187.91;4979231;28;46095;-64
2023/09/30 11:48:35;;;;;;;;;9.50;7.00;;;;;32.48;30.07;102180.06;4980063;28;45290;-61
2023/09/30 11:51:02;;;;;;;;;11.00;8.00;;;;;32.55;30.19;102182.97;4979618;28;45421;-63
2023/09/30 11:53:30;;;;;;;;;5.50;5.50;;;;;32.85;29.96;102193.28;4979560;28;45848;-68
2023/09/30 11:55:56;;;;;;;;;8.00;8.00;;;;;33.21;29.62;102174.16;4979061;28;46364;-61
2023/09/30 11:58:22;;;;;;;;;6.25;5.00;;;;;33.57;28.78;102168.88;4979120;28;45282;-62
2023/09/30 12:00:50;;;;;;;;;8.00;6.00;;;;;34.12;28.00;102162.09;4979552;28;45291;-66
2023/09/30 12:03:16;;;;;;;;;8.50;6.00;;;;;34.71;27.47;102162.13;4979195;28;45937;-59
2023/09/30 12:05:41;;;;;;;;;12.00;8.50;;;;;35.13;26.75;102150.22;4979511;28;46289;-60
2023/09/30 12:08:07;;;;;;;;;9.50;9.00;;;;;35.69;26.34;102161.50;4979828;28;45404;-60
2023/09/30 12:10:32;;;;;;;;;10.00;9.75;;;;;36.13;25.68;102156.53;4979043;28;45269;-59
2023/09/30 12:12:58;;;;;;;;;5.75;2.75;;;;;36.46;25.81;102148.38;4970422;28;45338;-63
2023/09/30 12:15:23;;;;;;;;;5.25;5.25;;;;;36.98;24.77;102146.91;4970969;28;45560;-59
2023/09/30 12:17:49;;;;;;;;;5.25;4.25;;;;;37.56;24.66;102142.50;4978682;28;45534;-60
2023/09/30 12:20:17;;;;;;;;;5.00;5.00;;;;;38.23;23.67;102130.22;4977835;28;45459;-60
2023/09/30 12:22:43;;;;;;;;;5.50;3.50;;;;;38.91;22.07;102131.47;4977980;28;45553;-60
2023/09/30 12:25:08;;;;;;;;;6.00;5.00;;;;;39.31;22.52;102128.44;4978911;28;50508;-60
2023/09/30 12:27:34;;;;;;;;;7.25;4.25;;;;;39.73;22.06;102121.19;4975642;28;45345;-60
2023/09/30 12:29:59;;;;;;;;;7.00;5.25;;;;;40.04;21.29;102107.09;4960925;28;45554;-63
2023/09/30 12:32:26;;;;;;;;;5.25;5.25;;;;;40.41;21.01;102102.34;4958571;28;45576;-60
2023/09/30 12:34:53;;;;;;;;;5.00;5.00;;;;;40.39;20.65;102109.31;4958429;28;47271;-61
2023/09/30 12:37:19;;;;;;;;;6.00;6.00;;;;;40.58;21.08;102107.34;4958940;28;45413;-60
2023/09/30 12:39:44;;;;;;;;;6.00;4.50;;;;;40.78;20.53;102111.63;4969340;28;46580;-60
2023/09/30 12:42:12;;;;;;;;;8.75;7.75;;;;;41.09;20.54;102106.88;4979087;28;45341;-60
2023/09/30 12:44:38;;;;;;;;;6.50;6.00;;;;;41.47;19.92;102107.34;4978783;28;47373;-61
2023/09/30 12:47:05;;;;;;;;;6.50;4.00;;;;;41.69;20.30;102113.25;4978853;28;45444;-60
2023/09/30 12:49:30;;;;;;;;;4.00;4.00;;;;;41.77;20.04;102112.91;4979415;28;45321;-61
2023/09/30 12:51:58;;;;;;;;;5.75;5.00;;;;;41.81;19.41;102110.47;4978678;28;45500;-60
2023/09/30 12:54:23;;;;;;;;;5.25;5.25;;;;;41.84;19.84;102096.75;4978642;28;46064;-63
2023/09/30 12:56:50;;;;;;;;;5.25;4.00;;;;;41.67;19.92;102084.50;4979344;28;45411;-59
2023/09/30 12:59:17;;;;;;;;;7.00;4.00;;;;;41.40;19.82;102075.63;4979311;28;45459;-60
2023/09/30 13:01:43;;;;;;;;;8.00;6.00;;;;;41.41;20.50;102082.97;4978737;28;45444;-59
2023/09/30 13:04:08;;;;;;;;;5.00;5.00;;;;;41.32;19.92;102076.00;4978403;28;45340;-59
2023/09/30 13:06:35;;;;;;;;;3.25;3.25;;;;;41.43;20.83;102063.03;4978845;28;45349;-63
2023/09/30 13:09:02;;;;;;;;;2.50;2.50;;;;;41.48;20.26;102071.59;4979481;28;45505;-64
2023/09/30 13:11:27;;;;;;;;;8.00;5.25;;;;;41.66;19.78;102063.06;4978621;28;45337;-65
2023/09/30 13:13:52;;;;;;;;;6.50;5.50;;;;;42.05;19.42;102061.47;4978260;28;45376;-63
2023/09/30 13:16:18;;;;;;;;;7.00;3.75;;;;;41.86;19.80;102066.34;4977710;28;48469;-64
2023/09/30 13:18:43;;;;;;;;;5.75;5.00;;;;;41.23;20.05;102066.19;4965501;28;45317;-64
2023/09/30 13:21:09;;;;;;;;;6.25;5.25;;;;;40.81;20.37;102077.41;4977860;28;51626;-64
2023/09/30 13:23:34;;;;;;;;;4.50;3.75;;;;;40.89;20.15;102072.53;4978446;28;45343;-63
2023/09/30 13:26:00;;;;;;;;;7.00;4.50;;;;;41.28;19.74;102068.25;4969675;28;45331;-65
2023/09/30 13:28:27;;;;;;;;;5.25;4.00;;;;;41.48;20.44;102069.66;4968981;28;45440;-60
2023/09/30 13:30:53;;;;;;;;;6.25;4.50;;;;;41.77;20.24;102072.63;4978775;28;45514;-60
2023/09/30 13:33:20;;;;;;;;;3.25;3.25;;;;;42.27;19.43;102061.69;4977811;28;46272;-60
2023/09/30 13:35:46;;;;;;;;;4.00;4.00;;;;;42.52;19.25;102064.19;4978060;28;45653;-60
2023/09/30 13:38:11;;;;;;;;;3.50;3.50;;;;;42.27;18.83;102062.53;4977988;28;45377;-61
2023/09/30 13:40:36;;;;;;;;;7.50;5.00;;;;;41.67;19.67;102059.16;4971600;28;60463;-62
2023/09/30 13:43:04;;;;;;;;;4.00;4.00;;;;;41.01;20.78;102064.97;4964997;28;45354;-61
2023/09/30 13:45:30;;;;;;;;;9.00;7.00;;;;;40.38;21.12;102060.69;4970256;28;45522;-62
2023/09/30 13:47:55;;;;;;;;;5.25;3.75;;;;;39.76;21.89;102058.09;4979497;28;45496;-60
2023/09/30 13:50:21;;;;;;;;;3.25;3.25;;;;;39.32;21.64;102058.03;4980439;28;56175;-62
2023/09/30 13:52:46;;;;;;;;;5.75;5.00;;;;;39.43;22.02;102045.25;4980722;28;46138;-61
2023/09/30 13:55:18;;;;;;;;;4.25;4.25;;;;;39.99;22.08;102047.94;4981348;28;45356;-61
2023/09/30 13:57:46;;;;;;;;;11.00;6.00;;;;;40.40;20.86;102038.81;4982490;28;45349;-61
2023/09/30 14:00:13;;;;;;;;;3.50;3.50;;;;;40.70;21.22;102041.66;4981904;28;45288;-59
2023/09/30 14:02:39;;;;;;;;;8.50;5.50;;;;;41.07;21.35;102033.94;4976345;28;45472;-60
2023/09/30 14:05:07;;;;;;;;;5.00;4.25;;;;;41.60;20.70;102041.50;4982608;28;45314;-60
2023/09/30 14:07:33;;;;;;;;;1.25;1.25;;;;;41.86;20.56;102035.34;4982344;28;45340;-61
2023/09/30 14:09:58;;;;;;;;;6.00;6.00;;;;;41.99;20.06;102036.25;4982362;28;45438;-61
2023/09/30 14:12:23;;;;;;;;;6.75;4.00;;;;;42.19;19.25;102037.56;4981644;28;45404;-61
2023/09/30 14:14:51;;;;;;;;;4.50;4.50;;;;;41.83;19.59;102033.06;4981488;28;52889;-61
2023/09/30 14:17:17;;;;;;;;;5.00;4.00;;;;;41.45;18.92;102030.69;4981365;28;45432;-61
2023/09/30 14:19:42;;;;;;;;;4.50;4.25;;;;;41.17;19.02;102022.13;4981404;28;45487;-61
2023/09/30 14:22:12;;;;;;;;;5.50;4.00;;;;;41.18;20.23;102026.63;4981597;28;46067;-61
2023/09/30 14:24:37;;;;;;;;;1.50;0.00;;;;;41.50;19.67;102022.41;4981386;28;45463;-62
2023/09/30 14:27:03;;;;;;;;;4.75;2.75;;;;;41.33;19.97;102020.56;4963818;28;45315;-60
2023/09/30 14:29:30;;;;;;;;;5.25;4.25;;;;;41.26;19.85;102017.00;4961994;28;45493;-62
2023/09/30 14:31:56;;;;;;;;;8.50;4.00;;;;;41.46;20.21;102023.97;4961195;28;45355;-61
2023/09/30 14:34:21;;;;;;;;;8.25;6.00;;;;;41.54;19.98;102017.16;4961888;28;45388;-61
2023/09/30 14:36:47;;;;;;;;;5.75;4.00;;;;;41.51;19.35;102023.25;4962031;28;45505;-61
2023/09/30 14:39:12;;;;;;;;;6.50;6.50;;;;;41.60;20.21;102018.97;4961786;28;45342;-61
2023/09/30 14:41:38;;;;;;;;;7.00;4.25;;;;;41.43;19.85;102020.81;4961628;28;46151;-60
2023/09/30 14:44:07;;;;;;;;;5.50;4.25;;;;;41.30;20.13;102007.81;4961923;28;45343;-60
2023/09/30 14:46:33;;;;;;;;;4.00;4.00;;;;;41.38;20.10;102012.22;4961458;28;45429;-61
2023/09/30 14:48:59;;;;;;;;;4.75;3.25;;;;;41.47;20.94;102007.94;4961495;28;45436;-60
2023/09/30 14:51:24;;;;;;;;;9.00;6.50;;;;;41.44;20.50;102003.66;4961296;28;46121;-59
2023/09/30 14:53:49;;;;;;;;;4.50;4.50;;;;;41.30;20.48;102007.81;4961345;28;45293;-61
2023/09/30 14:56:16;;;;;;;;;5.00;4.25;;;;;41.03;20.48;102001.75;4961086;28;52802;-60
2023/09/30 14:58:42;;;;;;;;;3.50;3.50;;;;;40.50;20.65;102014.88;4971555;28;45254;-61
2023/09/30 15:01:11;;;;;;;;;7.25;5.75;;;;;39.93;21.97;102006.75;4980033;28;46003;-61
2023/09/30 15:03:38;;;;;;;;;8.75;6.00;;;;;39.18;21.99;102010.69;4980845;28;45416;-60
2023/09/30 15:06:05;;;;;;;;;5.25;5.25;;;;;38.54;22.82;101998.59;4980864;28;45467;-61
2023/09/30 15:08:34;;;;;;;;;6.00;4.50;;;;;38.15;23.38;101998.78;4980882;28;45357;-61
2023/09/30 15:11:00;;;;;;;;;5.25;5.00;;;;;37.45;23.82;101998.50;4980496;28;46235;-61
2023/09/30 15:13:26;;;;;;;;;6.50;5.50;;;;;37.15;24.22;101996.38;4980528;28;45364;-61
2023/09/30 15:15:52;;;;;;;;;5.25;5.25;;;;;36.74;24.96;102006.66;4980292;28;45465;-61
2023/09/30 15:18:17;;;;;;;;;6.00;5.00;;;;;36.44;24.91;102001.56;4980074;28;45384;-62
2023/09/30 15:20:44;;;;;;;;;7.00;6.00;;;;;36.38;25.30;101989.31;4980517;28;46110;-61
2023/09/30 15:23:10;;;;;;;;;6.75;6.75;;;;;36.25;25.76;101986.47;4980488;28;45409;-61
2023/09/30 15:25:43;;;;;;;;;7.50;7.00;;;;;36.01;25.89;101987.84;4974116;28;45413;-62
2023/09/30 15:28:09;;;;;;;;;9.00;6.50;;;;;35.96;26.49;101980.13;4961005;28;45326;-62
2023/09/30 15:30:35;;;;;;;;;7.50;6.25;;;;;35.93;25.68;101985.25;4960815;28;45284;-62
2023/09/30 15:33:01;;;;;;;;;8.00;6.75;;;;;36.15;25.58;101986.00;4960591;28;45448;-61
2023/09/30 15:35:27;;;;;;;;;5.00;5.00;;;;;36.35;25.66;101981.34;4961055;28;45339;-61
2023/09/30 15:37:52;;;;;;;;;6.00;6.00;;;;;36.72;25.41;101986.44;4960882;28;45404;-60
2023/09/30 15:40:18;;;;;;;;;7.75;6.00;;;;;37.05;25.00;101986.44;4960765;28;46093;-60
2023/09/30 15:42:44;;;;;;;;;10.00;8.75;;;;;37.18;24.28;101982.81;4960722;28;45295;-60
2023/09/30 15:45:10;;;;;;;;;6.50;4.75;;;;;37.26;24.44;101978.97;4960883;28;45490;-61
2023/09/30 15:47:39;;;;;;;;;6.00;6.00;;;;;37.36;24.57;101982.16;4960388;28;45387;-60
2023/09/30 15:50:05;;;;;;;;;6.25;5.75;;;;;37.54;24.01;101985.13;4960792;28;46991;-61
2023/09/30 15:52:31;;;;;;;;;5.50;5.50;;;;;37.78;23.75;101978.00;4960512;28;45325;-60
2023/09/30 15:55:00;;;;;;;;;9.00;6.00;;;;;37.99;23.91;101976.84;4960694;28;45385;-60
2023/09/30 15:57:25;;;;;;;;;4.00;4.00;;;;;38.02;23.71;101985.69;4960566;28;45538;-60
2023/09/30 15:59:50;;;;;;;;;8.00;5.50;;;;;37.91;23.42;101980.78;4960403;28;54568;-60
2023/09/30 16:02:16;;;;;;;;;6.75;5.25;;;;;37.86;23.84;101984.22;4959308;28;47642;-61
2023/09/30 16:04:41;;;;;;;;;8.00;7.50;;;;;37.80;24.15;101982.31;4960936;28;45423;-60
2023/09/30 16:07:07;;;;;;;;;5.00;5.00;;;;;37.42;24.03;101976.56;4975349;28;47357;-60
2023/09/30 16:09:32;;;;;;;;;8.25;7.00;;;;;37.32;24.36;101976.16;4960431;28;46324;-61
2023/09/30 16:12:03;;;;;;;;;7.00;5.50;;;;;37.22;24.87;101972.06;4960092;28;45284;-61
2023/09/30 16:14:28;;;;;;;;;8.00;6.75;;;;;37.08;24.67;101973.97;4960538;28;45445;-60
2023/09/30 16:16:55;;;;;;;;;7.75;6.75;;;;;36.97;25.21;101978.28;4959568;28;45247;-61
2023/09/30 16:19:20;;;;;;;;;7.50;6.25;;;;;36.73;25.49;101976.13;4968164;28;46072;-61
2023/09/30 16:21:45;;;;;;;;;7.25;5.25;;;;;36.69;25.62;101967.28;4979737;28;45418;-61
2023/09/30 16:24:11;;;;;;;;;7.50;6.00;;;;;36.63;25.31;101962.50;4979560;28;45410;-61
2023/09/30 16:26:36;;;;;;;;;6.00;6.00;;;;;36.55;25.42;101973.03;4965109;28;45378;-61
2023/09/30 16:29:01;;;;;;;;;8.50;5.25;;;;;36.30;25.68;101976.41;4960148;28;46194;-61
2023/09/30 16:31:27;;;;;;;;;7.25;6.50;;;;;36.24;26.07;101971.66;4959644;28;45349;-61
2023/09/30 16:33:52;;;;;;;;;9.00;5.00;;;;;36.15;26.08;101972.03;4959895;28;54411;-60
2023/09/30 16:36:17;;;;;;;;;13.00;11.00;;;;;36.08;26.73;101976.69;4959591;28;52735;-60
2023/09/30 16:38:43;;;;;;;;;8.00;8.00;;;;;36.02;26.56;101976.47;4959958;28;49888;-61
2023/09/30 16:41:08;;;;;;;;;5.25;5.25;;;;;35.91;26.69;101985.44;4959787;28;46845;-62
2023/09/30 16:43:34;;;;;;;;;7.25;7.25;;;;;35.77;26.24;101982.78;4974896;28;45397;-60
2023/09/30 16:46:00;;;;;;;;;10.00;5.50;;;;;35.69;26.86;101969.84;4959477;28;45585;-63
2023/09/30 16:48:26;;;;;;;;;7.00;7.00;;;;;35.58;26.80;101979.63;4960045;28;45874;-62
2023/09/30 16:50:51;;;;;;;;;5.50;4.50;;;;;35.36;27.51;101972.41;4959670;28;45334;-61
2023/09/30 16:53:16;;;;;;;;;6.75;6.75;;;;;35.13;27.47;101969.84;4960034;28;45247;-60
2023/09/30 16:55:42;;;;;;;;;5.00;4.00;;;;;34.99;27.81;101968.00;4959707;28;45263;-61
2023/09/30 16:58:08;;;;;;;;;4.75;3.00;;;;;34.77;28.01;101967.19;4959819;28;46969;-60
2023/09/30 17:00:33;;;;;;;;;8.75;7.50;;;;;34.68;28.00;101981.41;4959468;28;45386;-62
2023/09/30 17:02:59;;;;;;;;;7.75;7.75;;;;;34.43;28.29;101972.56;4960221;28;45381;-60
2023/09/30 17:05:24;;;;;;;;;7.75;6.50;;;;;34.31;28.57;101980.56;4959929;28;45291;-61
2023/09/30 17:07:50;;;;;;;;;7.00;5.25;;;;;34.13;28.54;101974.53;4966131;28;45217;-61
2023/09/30 17:10:15;;;;;;;;;8.50;6.25;;;;;34.01;29.11;101990.03;4979369;28;45247;-61
2023/09/30 17:12:41;;;;;;;;;5.00;5.00;;;;;33.88;28.90;101985.13;4979052;28;45274;-61
2023/09/30 17:15:07;;;;;;;;;9.00;8.75;;;;;33.77;29.29;101992.03;4982657;28;45334;-61
2023/09/30 17:17:33;;;;;;;;;7.00;7.00;;;;;33.73;29.94;101987.94;4982003;28;47232;-61
2023/09/30 17:19:59;;;;;;;;;11.25;6.50;;;;;33.64;30.18;101990.97;4982319;28;45253;-60
2023/09/30 17:22:24;;;;;;;;;7.25;6.75;;;;;33.49;29.89;101978.97;4982716;28;45338;-60
2023/09/30 17:24:50;;;;;;;;;10.75;6.25;;;;;33.33;30.40;101992.00;4981835;28;45322;-60
2023/09/30 17:27:16;;;;;;;;;5.50;5.50;;;;;33.18;30.87;101991.03;4962922;28;45340;-61
2023/09/30 17:29:41;;;;;;;;;5.75;5.75;;;;;33.16;30.88;101993.19;4962711;28;45307;-61
2023/09/30 17:32:07;;;;;;;;;13.00;10.25;;;;;33.05;31.09;101983.38;4962615;28;45258;-61
2023/09/30 17:34:37;;;;;;;;;6.00;4.25;;;;;32.95;31.23;101998.56;4962474;28;45496;-61
2023/09/30 17:37:03;;;;;;;;;10.25;9.25;;;;;32.91;31.40;101988.88;4962617;28;46160;-61
2023/09/30 17:39:29;;;;;;;;;6.75;6.75;;;;;32.87;31.31;101998.63;4962478;28;45357;-62
2023/09/30 17:41:55;;;;;;;;;10.50;7.00;;;;;32.85;31.67;101996.03;4962559;28;45337;-61
2023/09/30 17:44:20;;;;;;;;;6.75;6.75;;;;;32.78;31.88;102002.53;4962411;28;45382;-61
2023/09/30 17:46:46;;;;;;;;;11.50;9.75;;;;;32.71;31.94;101998.75;4961859;28;45336;-62
2023/09/30 17:49:12;;;;;;;;;10.50;7.75;;;;;32.66;32.16;102002.06;4962106;28;45547;-61
2023/09/30 17:51:37;;;;;;;;;9.00;6.25;;;;;32.61;31.72;102007.28;4962252;28;45340;-62
2023/09/30 17:54:02;;;;;;;;;8.50;8.50;;;;;32.58;32.22;102021.56;4961526;28;61038;-61
2023/09/30 17:56:28;;;;;;;;;10.00;8.50;;;;;32.49;32.42;102023.53;4962552;28;45983;-60
2023/09/30 17:58:54;;;;;;;;;9.50;8.50;;;;;32.46;32.01;102018.34;4960949;28;45340;-61
2023/09/30 18:01:21;;;;;;;;;10.50;9.00;;;;;32.42;32.10;102008.63;4962073;28;45335;-61
2023/09/30 18:03:47;;;;;;;;;11.75;8.00;;;;;32.41;32.21;101997.72;4961960;28;45611;-61
2023/09/30 18:06:12;;;;;;;;;10.75;8.00;;;;;32.41;32.45;102003.28;4962011;28;46072;-60
2023/09/30 18:08:42;;;;;;;;;10.00;10.00;;;;;32.38;31.87;102004.50;4961833;28;45513;-62
2023/09/30 18:11:08;;;;;;;;;11.25;11.25;;;;;32.33;31.88;101998.63;4962142;28;45491;-61
2023/09/30 18:13:34;;;;;;;;;12.50;12.25;;;;;32.26;32.82;102006.81;4961486;28;45493;-62
2023/09/30 18:16:02;;;;;;;;;15.50;11.50;;;;;32.25;32.89;102010.63;4960055;28;45454;-60
2023/09/30 18:18:28;;;;;;;;;10.00;10.00;;;;;32.15;33.19;102007.22;4961208;28;45362;-61
2023/09/30 18:20:53;;;;;;;;;12.25;11.00;;;;;32.18;32.63;102003.22;4981634;28;45357;-61
2023/09/30 18:23:19;;;;;;;;;10.50;10.50;;;;;32.12;33.21;102003.91;4981219;28;45552;-61
2023/09/30 18:25:44;;;;;;;;;9.50;9.50;;;;;32.12;33.77;102006.69;4973585;28;46107;-63
2023/09/30 18:28:10;;;;;;;;;12.75;11.00;;;;;32.09;33.21;102016.22;4961739;28;45374;-61
2023/09/30 18:30:42;;;;;;;;;13.25;11.50;;;;;32.06;33.52;102011.06;4961946;28;45318;-61
2023/09/30 18:33:09;;;;;;;;;11.50;11.50;;;;;32.04;32.74;102017.84;4961488;28;45420;-60
2023/09/30 18:35:39;;;;;;;;;7.00;6.00;;;;;31.98;33.74;102013.00;4961663;28;46459;-61
2023/09/30 18:38:08;;;;;;;;;14.75;11.00;;;;;31.98;33.85;102013.00;4961147;28;45268;-61
2023/09/30 18:40:35;;;;;;;;;12.50;12.50;;;;;32.00;33.25;102013.66;4961651;28;45392;-61
2023/09/30 18:43:03;;;;;;;;;15.75;13.50;;;;;31.94;33.77;102013.34;4961122;28;45872;-60
2023/09/30 18:45:28;;;;;;;;;13.50;13.00;;;;;31.97;33.64;102019.59;4961187;28;46370;-60
2023/09/30 18:47:54;;;;;;;;;14.25;13.00;;;;;31.86;33.35;102018.94;4961166;28;45357;-61
2023/09/30 18:50:19;;;;;;;;;13.25;13.00;;;;;31.83;34.52;102019.28;4961618;28;45293;-61
2023/09/30 18:52:45;;;;;;;;;10.00;10.00;;;;;31.76;33.37;102032.13;4961014;28;55611;-61
2023/09/30 18:55:11;;;;;;;;;9.75;9.75;;;;;31.74;34.59;102033.34;4961506;28;46094;-61
2023/09/30 18:57:37;;;;;;;;;14.75;12.25;;;;;31.67;34.38;102040.66;4961680;28;45350;-61
2023/09/30 19:00:02;;;;;;;;;11.00;11.00;;;;;31.72;34.06;102027.13;4961632;28;45359;-61
2023/09/30 19:02:28;;;;;;;;;11.25;9.75;;;;;31.71;34.10;102031.81;4961105;28;45381;-61
2023/09/30 19:04:53;;;;;;;;;10.50;10.50;;;;;31.77;33.64;102033.88;4961249;28;47087;-61
2023/09/30 19:07:19;;;;;;;;;13.25;12.00;;;;;31.68;34.00;102034.94;4960545;28;58226;-61
2023/09/30 19:09:44;;;;;;;;;11.75;11.00;;;;;31.70;34.06;102037.53;4961255;28;45354;-62
2023/09/30 19:12:10;;;;;;;;;12.00;11.00;;;;;31.68;33.91;102040.47;4960718;28;45453;-62
2023/09/30 19:14:35;;;;;;;;;10.00;10.00;;;;;31.66;33.90;102037.00;4960986;28;45990;-60
2023/09/30 19:17:01;;;;;;;;;18.50;16.75;;;;;31.68;34.27;102040.47;4960785;28;45492;-62
2023/09/30 19:19:26;;;;;;;;;16.25;15.50;;;;;31.65;33.57;102035.28;4960958;28;45561;-60
2023/09/30 19:21:51;;;;;;;;;14.25;12.75;;;;;31.63;34.10;102028.19;4975579;28;59110;-62
2023/09/30 19:24:16;;;;;;;;;15.00;14.00;;;;;31.54;33.84;102025.41;4979936;28;58238;-62
2023/09/30 19:26:42;;;;;;;;;15.50;14.25;;;;;31.50;34.47;102026.78;4965438;28;49542;-61
2023/09/30 19:29:07;;;;;;;;;15.25;14.25;;;;;31.48;34.10;102026.09;4961303;28;45226;-62
2023/09/30 19:31:32;;;;;;;;;18.00;13.25;;;;;31.45;34.32;102028.38;4960389;28;45254;-62
2023/09/30 19:33:58;;;;;;;;;15.75;13.50;;;;;31.46;34.25;102025.44;4960913;28;45909;-60
2023/09/30 19:36:24;;;;;;;;;17.75;16.25;;;;;31.41;34.78;102024.22;4959784;28;48354;-61
2023/09/30 19:38:49;;;;;;;;;17.25;17.25;;;;;31.36;34.32;102035.84;4971170;28;45339;-53
2023/09/30 19:41:17;;;;;;;;;16.25;16.25;;;;;31.34;34.39;102028.72;4973366;28;47742;-53
2023/09/30 19:43:43;;;;;;;;;16.25;15.00;;;;;31.29;34.90;102029.25;4975026;28;46168;-52
2023/09/30 19:46:11;;;;;;;;;12.50;12.50;;;;;31.32;34.43;102030.78;4977365;28;45483;-57
2023/09/30 19:48:40;;;;;;;;;11.00;10.25;;;;;31.32;34.73;102025.25;4970799;28;45677;-50
2023/09/30 19:51:06;;;;;;;;;20.25;20.25;;;;;31.26;35.05;102029.59;4971586;28;45504;-55
2023/09/30 19:53:32;;;;;;;;;21.25;18.50;;;;;31.20;35.05;102033.94;4977021;28;46180;-55
2023/09/30 19:56:04;;;;;;;;;19.50;17.75;;;;;31.24;35.32;102033.56;4975037;28;45527;-56
2023/09/30 19:58:29;;;;;;;;;17.50;12.25;;;;;31.14;35.12;102023.53;4975615;28;45428;-56
2023/09/30 20:00:56;;;;;;;;;18.00;15.25;;;;;31.10;34.63;102027.72;4974888;28;45808;-54
2023/09/30 20:03:21;;;;;;;;;18.00;15.25;;;;;31.08;35.38;102028.91;4976895;28;46281;-52
2023/09/30 20:05:47;;;;;;;;;18.25;14.25;;;;;31.03;35.06;102028.53;4976897;28;45237;-53
2023/09/30 20:08:12;;;;;;;;;15.50;13.00;;;;;31.01;35.47;102033.38;4977437;28;45401;-51
2023/09/30 20:10:37;;;;;;;;;20.50;14.00;;;;;31.05;34.85;102034.78;4972922;28;47697;-53
2023/09/30 20:13:07;;;;;;;;;18.25;16.25;;;;;31.03;35.44;102026.66;4977318;28;46299;-55
2023/09/30 20:15:34;;;;;;;;;16.25;15.75;;;;;30.90;35.38;102031.81;4974444;28;45515;-54
2023/09/30 20:18:00;;;;;;;;;19.75;17.25;;;;;30.97;34.99;102038.38;4977025;28;45508;-55
2023/09/30 20:20:26;;;;;;;;;15.25;15.00;;;;;30.82;35.22;102027.13;4977588;28;45614;-52
2023/09/30 20:22:52;;;;;;;;;18.75;17.75;;;;;30.88;35.78;102030.28;4979125;28;45388;-56
2023/09/30 20:25:17;;;;;;;;;12.50;11.25;;;;;30.69;35.82;102018.47;4979194;28;45511;-53
2023/09/30 20:27:42;;;;;;;;;17.50;16.25;;;;;30.78;36.12;102020.22;4978882;28;53225;-55